Time;durP1;ratioP1;P1;durP2;ratioP2;P2;SDS_P1;SDS_P2;PMS_P1;PMS_P2;Temp;Humidity;BMP_temperature;BMP_pressure;BME280_temperature;BME280_humidity;BME280_pressure;Samples;Min_cycle;Max_cycle;Signal;HPM_P1;HPM_P2
2022/10/11 00:00:11;;;;;;;18.70;12.47;;;;;;;15.12;93.98;95312.41;5132992;27;20203;-74
2022/10/11 00:02:38;;;;;;;22.33;13.17;;;;;;;15.11;94.56;95312.66;5133507;27;20225;-75
2022/10/11 00:05:06;;;;;;;22.47;13.00;;;;;;;15.12;94.07;95314.25;5132632;27;20201;-75
2022/10/11 00:07:33;;;;;;;22.50;13.13;;;;;;;15.22;94.03;95322.31;5133137;27;20278;-74
2022/10/11 00:10:00;;;;;;;18.50;12.73;;;;;;;15.28;93.65;95322.19;5133140;27;20548;-74
2022/10/11 00:12:27;;;;;;;21.90;14.10;;;;;;;15.23;94.12;95324.72;5132768;27;20230;-74
2022/10/11 00:14:55;;;;;;;19.50;13.87;;;;;;;15.16;94.18;95316.16;5132935;27;20223;-74
2022/10/11 00:17:22;;;;;;;22.27;14.37;;;;;;;15.16;94.12;95310.94;5133595;27;20195;-75
2022/10/11 00:19:49;;;;;;;25.87;14.80;;;;;;;15.16;94.71;95323.22;5132906;27;20234;-75
2022/10/11 00:22:16;;;;;;;24.13;14.60;;;;;;;15.18;94.31;95310.72;5133174;27;20211;-75
2022/10/11 00:24:43;;;;;;;22.33;15.27;;;;;;;15.14;94.52;95314.81;5133577;27;20199;-74
2022/10/11 00:27:10;;;;;;;24.37;15.07;;;;;;;15.16;94.61;95312.75;5132095;27;20214;-75
2022/10/11 00:29:38;;;;;;;22.10;15.37;;;;;;;15.15;94.63;95311.16;5132559;27;20195;-76
2022/10/11 00:32:06;;;;;;;26.13;16.00;;;;;;;15.14;94.61;95313.00;5133007;27;20222;-75
2022/10/11 00:34:33;;;;;;;19.63;15.40;;;;;;;15.07;95.03;95309.69;5132123;27;20219;-74
2022/10/11 00:37:00;;;;;;;22.90;16.27;;;;;;;15.15;95.02;95303.31;5132423;27;20195;-75
2022/10/11 00:39:27;;;;;;;22.37;14.70;;;;;;;15.15;95.08;95314.56;5131898;27;20207;-75
2022/10/11 00:41:54;;;;;;;29.43;15.90;;;;;;;14.86;95.76;95318.13;5132490;27;20207;-75
2022/10/11 00:44:24;;;;;;;25.33;17.30;;;;;;;14.44;98.81;95306.13;5132620;27;20196;-75
2022/10/11 00:46:55;;;;;;;26.07;16.00;;;;;;;14.40;99.89;95297.16;5132203;27;20645;-76
2022/10/11 00:49:32;;;;;;;24.23;16.30;;;;;;;14.42;100.00;95298.53;5132651;27;20639;-75
2022/10/11 00:52:02;;;;;;;21.53;16.47;;;;;;;14.46;100.00;95296.25;5132152;27;20203;-75
2022/10/11 00:54:33;;;;;;;20.60;16.23;;;;;;;14.58;99.45;95297.06;5132032;27;20223;-75
2022/10/11 00:57:03;;;;;;;25.47;16.63;;;;;;;14.69;98.73;95304.91;5132409;27;20210;-75
2022/10/11 00:59:35;;;;;;;26.27;16.23;;;;;;;14.67;98.52;95309.56;5132289;27;20199;-75
2022/10/11 01:02:02;;;;;;;26.20;16.47;;;;;;;14.78;98.23;95313.22;5131248;27;20206;-75
2022/10/11 01:04:30;;;;;;;22.27;17.00;;;;;;;14.77;98.61;95312.41;5122673;27;20192;-78
2022/10/11 01:06:58;;;;;;;27.43;16.60;;;;;;;14.61;98.48;95293.97;5125240;27;20680;-79
2022/10/11 01:09:26;;;;;;;23.67;16.50;;;;;;;14.67;98.86;95303.53;5131112;27;20199;-77
2022/10/11 01:11:56;;;;;;;23.43;16.70;;;;;;;14.66;98.88;95299.34;5131561;27;20654;-77
2022/10/11 01:14:48;;;;;;;24.00;17.10;;;;;;;14.69;98.83;95293.63;5131597;27;20223;-77
2022/10/11 01:17:23;;;;;;;29.63;17.27;;;;;;;14.66;99.19;95296.75;5128031;27;20207;-78
2022/10/11 01:20:18;;;;;;;28.53;17.50;;;;;;;14.67;98.66;95299.13;5131260;27;20210;-78
2022/10/11 01:23:17;;;;;;;28.80;17.07;;;;;;;14.63;99.78;95302.41;5128184;27;20214;-77
2022/10/11 01:26:01;;;;;;;27.97;16.67;;;;;;;14.61;99.10;95286.94;5131807;27;20214;-76
2022/10/11 01:28:42;;;;;;;29.27;17.13;;;;;;;14.63;98.96;95289.34;5129270;27;20207;-80
2022/10/11 01:31:20;;;;;;;23.60;16.77;;;;;;;14.60;99.51;95284.56;5118674;27;20686;-79
2022/10/11 01:33:53;;;;;;;24.40;16.77;;;;;;;14.61;99.42;95286.94;5124142;27;20215;-79
2022/10/11 01:36:27;;;;;;;23.20;16.27;;;;;;;14.55;100.00;95287.84;5125107;27;20203;-77
2022/10/11 01:38:59;;;;;;;28.17;17.87;;;;;;;14.50;100.00;95286.94;5131598;27;20195;-78
2022/10/11 01:41:30;;;;;;;25.73;16.73;;;;;;;14.55;100.00;95293.06;5131525;27;20624;-78
2022/10/11 01:44:00;;;;;;;24.23;17.20;;;;;;;14.60;99.42;95285.31;5124357;27;20203;-78
2022/10/11 01:46:30;;;;;;;23.63;16.13;;;;;;;14.57;100.00;95285.78;5131937;27;20291;-78
2022/10/11 01:48:59;;;;;;;23.57;17.43;;;;;;;14.59;100.00;95286.38;5131236;27;20223;-78
2022/10/11 01:51:30;;;;;;;30.77;17.00;;;;;;;14.50;100.00;95287.72;5131457;27;20203;-77
2022/10/11 01:54:21;;;;;;;27.87;17.97;;;;;;;14.10;100.00;95287.53;5124429;27;20265;-77
2022/10/11 01:57:03;;;;;;;25.63;18.30;;;;;;;13.77;100.00;95291.59;5131065;27;20210;-77
2022/10/11 01:59:42;;;;;;;31.57;19.27;;;;;;;13.76;100.00;95290.03;5124735;27;20207;-78
2022/10/11 02:02:26;;;;;;;28.23;18.83;;;;;;;13.85;100.00;95289.47;5131058;27;20280;-78
2022/10/11 02:04:57;;;;;;;29.27;17.77;;;;;;;13.93;100.00;95285.75;5127553;27;20191;-78
2022/10/11 02:07:34;;;;;;;28.67;18.87;;;;;;;14.02;100.00;95280.00;5131481;27;20199;-79
2022/10/11 02:10:11;;;;;;;30.20;18.53;;;;;;;14.13;100.00;95286.28;5131571;27;20654;-77
2022/10/11 02:12:42;;;;;;;28.20;18.57;;;;;;;14.21;100.00;95289.34;5131496;27;20206;-77
2022/10/11 02:15:13;;;;;;;30.40;19.30;;;;;;;14.26;100.00;95280.06;5131250;27;20314;-75
2022/10/11 02:17:46;;;;;;;27.73;18.70;;;;;;;14.27;100.00;95286.88;5131480;27;20202;-76
2022/10/11 02:20:18;;;;;;;29.27;18.63;;;;;;;14.23;100.00;95281.28;5131085;27;20200;-75
2022/10/11 02:22:49;;;;;;;29.13;19.00;;;;;;;14.26;100.00;95277.44;5118957;27;20199;-75
2022/10/11 02:25:21;;;;;;;27.63;19.10;;;;;;;14.29;100.00;95283.00;5128301;28;20207;-75
2022/10/11 02:27:51;;;;;;;26.70;19.17;;;;;;;14.14;100.00;95275.56;5131082;27;20206;-74
2022/10/11 02:30:18;;;;;;;29.90;19.27;;;;;;;14.20;100.00;95264.22;5130852;27;20206;-75
2022/10/11 02:32:48;;;;;;;31.93;20.00;;;;;;;14.24;100.00;95277.66;5131223;27;20207;-74
2022/10/11 02:35:16;;;;;;;28.90;19.27;;;;;;;14.26;100.00;95274.84;5130939;27;20238;-75
2022/10/11 02:37:51;;;;;;;28.97;19.93;;;;;;;14.21;100.00;95268.44;5130776;27;20665;-75
2022/10/11 02:40:23;;;;;;;35.20;20.43;;;;;;;14.13;100.00;95266.16;5130771;27;20638;-75
2022/10/11 02:42:53;;;;;;;32.73;20.67;;;;;;;14.07;100.00;95267.06;5130533;27;20211;-75
2022/10/11 02:45:25;;;;;;;31.83;19.73;;;;;;;14.05;100.00;95268.31;5131516;27;20199;-75
2022/10/11 02:47:53;;;;;;;30.37;20.37;;;;;;;14.07;100.00;95268.88;5130487;27;20223;-75
2022/10/11 02:50:22;;;;;;;31.40;19.97;;;;;;;14.08;100.00;95270.47;5124138;28;20726;-75
2022/10/11 02:52:49;;;;;;;29.83;19.73;;;;;;;14.08;100.00;95263.41;5130724;27;20204;-74
2022/10/11 02:55:16;;;;;;;28.20;19.67;;;;;;;14.12;100.00;95258.53;5131129;27;20223;-75
2022/10/11 02:57:43;;;;;;;33.50;20.73;;;;;;;13.77;100.00;95266.28;5130455;27;20553;-75
2022/10/11 03:00:11;;;;;;;35.73;21.27;;;;;;;13.45;100.00;95259.66;5130813;27;20207;-75
2022/10/11 03:02:38;;;;;;;32.77;21.70;;;;;;;13.45;100.00;95254.44;5124313;28;20207;-75
2022/10/11 03:05:06;;;;;;;36.13;21.33;;;;;;;13.49;100.00;95253.78;5123775;28;20195;-76
2022/10/11 03:07:33;;;;;;;29.73;20.33;;;;;;;13.53;100.00;95262.00;5130858;27;20210;-75
2022/10/11 03:10:00;;;;;;;32.37;21.33;;;;;;;13.62;100.00;95253.59;5130779;27;20200;-76
2022/10/11 03:12:27;;;;;;;31.77;21.47;;;;;;;13.74;100.00;95256.25;5132291;27;20203;-76
2022/10/11 03:14:53;;;;;;;31.07;20.47;;;;;;;13.77;100.00;95263.66;5134116;27;20223;-76
2022/10/11 03:17:20;;;;;;;33.00;20.50;;;;;;;13.88;100.00;95257.66;5133937;27;20222;-76
2022/10/11 03:19:47;;;;;;;36.83;21.80;;;;;;;13.92;100.00;95253.59;5134011;27;20199;-77
2022/10/11 03:22:17;;;;;;;31.97;22.00;;;;;;;14.03;100.00;95259.88;5132917;27;20208;-75
2022/10/11 03:24:44;;;;;;;36.03;21.57;;;;;;;14.10;100.00;95252.75;5133304;27;20649;-75
2022/10/11 03:27:11;;;;;;;31.03;20.17;;;;;;;14.10;100.00;95250.91;5133397;27;20207;-76
2022/10/11 03:29:38;;;;;;;31.60;20.30;;;;;;;14.15;100.00;95258.06;5133392;27;20211;-76
2022/10/11 03:32:05;;;;;;;34.10;20.63;;;;;;;14.15;100.00;95252.84;5132846;27;20199;-74
2022/10/11 03:34:32;;;;;;;32.33;20.47;;;;;;;14.15;100.00;95258.88;5132911;27;20223;-75
2022/10/11 03:36:59;;;;;;;31.30;20.27;;;;;;;14.10;100.00;95250.91;5133099;27;20199;-75
2022/10/11 03:39:27;;;;;;;30.53;20.87;;;;;;;13.97;100.00;95253.72;5133224;27;20200;-76
2022/10/11 03:41:54;;;;;;;34.40;20.17;;;;;;;13.93;100.00;95236.91;5132913;27;20210;-75
2022/10/11 03:44:21;;;;;;;30.93;20.73;;;;;;;14.15;100.00;95251.03;5132783;27;20260;-75
2022/10/11 03:46:48;;;;;;;33.27;19.97;;;;;;;14.11;100.00;95249.13;5133118;27;20204;-75
2022/10/11 03:49:14;;;;;;;32.53;20.20;;;;;;;14.09;100.00;95246.72;5132362;27;20720;-73
2022/10/11 03:51:41;;;;;;;28.60;19.83;;;;;;;14.11;100.00;95244.66;5130310;27;20202;-73
2022/10/11 03:54:08;;;;;;;31.47;20.17;;;;;;;14.10;100.00;95247.50;5108814;27;20207;-73
2022/10/11 03:56:36;;;;;;;29.87;19.07;;;;;;;14.14;100.00;95240.81;5114298;27;20196;-72
2022/10/11 03:59:03;;;;;;;30.60;20.07;;;;;;;14.11;100.00;95236.81;5118276;27;20200;-73
2022/10/11 04:01:34;;;;;;;32.23;20.10;;;;;;;14.11;100.00;95242.03;5120486;27;20203;-73
2022/10/11 04:04:01;;;;;;;28.97;19.93;;;;;;;14.12;100.00;95241.03;5121624;27;20744;-73
2022/10/11 04:06:28;;;;;;;31.77;20.10;;;;;;;14.09;100.00;95248.53;5118657;27;20218;-73
2022/10/11 04:08:54;;;;;;;30.67;19.30;;;;;;;14.10;100.00;95244.91;5130062;27;20209;-73
2022/10/11 04:11:21;;;;;;;28.77;19.17;;;;;;;13.78;100.00;95243.56;5126944;27;20210;-72
2022/10/11 04:13:49;;;;;;;31.63;19.40;;;;;;;13.52;100.00;95248.13;5132107;27;20214;-73
2022/10/11 04:16:16;;;;;;;30.50;18.77;;;;;;;13.44;100.00;95245.84;5131238;27;20224;-72
2022/10/11 04:18:43;;;;;;;31.20;18.63;;;;;;;13.51;100.00;95246.53;5131506;27;20203;-72
2022/10/11 04:21:10;;;;;;;35.63;19.97;;;;;;;13.53;100.00;95246.31;5131382;27;20207;-74
2022/10/11 04:23:37;;;;;;;32.60;19.50;;;;;;;13.69;100.00;95244.88;5132558;27;20283;-73
2022/10/11 04:26:04;;;;;;;32.47;20.03;;;;;;;13.79;100.00;95245.16;5132396;27;20191;-73
2022/10/11 04:28:31;;;;;;;31.00;19.43;;;;;;;13.81;100.00;95245.72;5132325;27;20286;-73
2022/10/11 04:31:01;;;;;;;31.47;19.90;;;;;;;13.87;100.00;95244.84;5132499;27;20196;-73
2022/10/11 04:33:28;;;;;;;37.93;23.90;;;;;;;13.94;100.00;95242.94;5132140;27;20210;-73
2022/10/11 04:35:56;;;;;;;30.47;19.53;;;;;;;14.00;100.00;95239.41;5132204;27;20230;-72
2022/10/11 04:38:23;;;;;;;34.53;19.63;;;;;;;13.97;100.00;95234.63;5131800;27;20279;-72
2022/10/11 04:40:50;;;;;;;31.30;19.53;;;;;;;14.10;100.00;95245.69;5131499;27;20594;-73
2022/10/11 04:43:17;;;;;;;32.40;19.00;;;;;;;14.11;100.00;95252.50;5131626;27;20206;-71
2022/10/11 04:45:45;;;;;;;34.03;19.93;;;;;;;14.02;100.00;95246.03;5132068;27;20282;-74
2022/10/11 04:48:14;;;;;;;31.23;20.00;;;;;;;14.08;100.00;95247.72;5128401;27;20239;-75
2022/10/11 04:50:41;;;;;;;31.07;19.37;;;;;;;14.13;100.00;95247.06;5129545;27;20216;-75
2022/10/11 04:53:08;;;;;;;34.33;19.73;;;;;;;14.17;100.00;95250.78;5130923;27;20191;-73
2022/10/11 04:55:35;;;;;;;35.23;20.23;;;;;;;14.17;100.00;95249.00;5132167;27;20610;-72
2022/10/11 04:58:02;;;;;;;40.03;20.67;;;;;;;14.06;100.00;95243.75;5131684;27;20226;-71
2022/10/11 05:00:29;;;;;;;32.50;19.73;;;;;;;14.07;100.00;95242.72;5131680;27;20199;-73
2022/10/11 05:02:56;;;;;;;33.53;19.60;;;;;;;13.94;100.00;95237.72;5120889;27;20614;-74
2022/10/11 05:05:42;;;;;;;34.57;19.93;;;;;;;14.01;100.00;95246.22;5130716;27;20230;-74
2022/10/11 05:08:10;;;;;;;33.63;19.87;;;;;;;14.05;100.00;95250.00;5130647;27;20321;-74
2022/10/11 05:10:36;;;;;;;40.73;21.63;;;;;;;14.10;100.00;95248.31;5132371;27;20211;-72
2022/10/11 05:13:04;;;;;;;33.47;20.40;;;;;;;14.13;100.00;95249.66;5131123;27;20213;-73
2022/10/11 05:15:30;;;;;;;36.90;21.37;;;;;;;14.18;100.00;95252.41;5131393;27;20223;-72
2022/10/11 05:17:57;;;;;;;39.50;22.60;;;;;;;14.29;100.00;95258.66;5130160;27;20218;-72
2022/10/11 05:20:26;;;;;;;39.53;21.23;;;;;;;14.32;100.00;95255.59;5129850;27;20240;-72
2022/10/11 05:22:53;;;;;;;36.73;21.17;;;;;;;14.30;100.00;95255.03;5129908;27;20204;-72
2022/10/11 05:25:20;;;;;;;35.83;20.97;;;;;;;14.32;100.00;95255.59;5130453;27;20195;-73
2022/10/11 05:27:47;;;;;;;35.13;20.90;;;;;;;14.37;100.00;95263.63;5130125;27;20210;-72
2022/10/11 05:30:14;;;;;;;35.97;21.47;;;;;;;14.31;100.00;95267.09;5130157;27;20633;-72
2022/10/11 05:32:41;;;;;;;38.83;20.67;;;;;;;14.35;100.00;95274.28;5131252;27;20210;-73
2022/10/11 05:35:08;;;;;;;40.83;22.13;;;;;;;14.38;100.00;95273.84;5130787;27;20219;-72
2022/10/11 05:37:36;;;;;;;37.37;20.40;;;;;;;14.39;100.00;95278.06;5131753;27;20207;-72
2022/10/11 05:40:04;;;;;;;38.20;21.10;;;;;;;14.33;100.00;95280.75;5131121;27;20199;-72
2022/10/11 05:42:30;;;;;;;40.10;22.40;;;;;;;14.28;100.00;95285.84;5131257;27;20276;-72
2022/10/11 05:44:57;;;;;;;44.63;21.83;;;;;;;14.36;100.00;95282.94;5131064;27;20199;-72
2022/10/11 05:47:24;;;;;;;35.27;20.00;;;;;;;14.40;100.00;95289.31;5131261;27;20243;-72
2022/10/11 05:49:51;;;;;;;38.60;19.93;;;;;;;14.47;100.00;95285.56;5131388;27;20207;-73
2022/10/11 05:52:20;;;;;;;32.07;18.33;;;;;;;14.47;100.00;95282.94;5128980;27;20253;-72
2022/10/11 05:54:48;;;;;;;31.30;18.60;;;;;;;14.56;100.00;95272.94;5130703;27;20864;-72
2022/10/11 05:57:15;;;;;;;30.57;17.70;;;;;;;14.61;100.00;95263.38;5126583;27;20210;-72
2022/10/11 05:59:42;;;;;;;33.30;17.57;;;;;;;14.65;100.00;95258.50;5130738;27;20199;-71
2022/10/11 06:02:11;;;;;;;30.93;18.43;;;;;;;14.70;100.00;95267.25;5130822;28;20643;-72
2022/10/11 06:04:38;;;;;;;32.40;17.53;;;;;;;14.67;100.00;95278.19;5131299;27;20211;-72
2022/10/11 06:07:05;;;;;;;27.27;17.20;;;;;;;14.77;100.00;95269.78;5130851;27;20195;-72
2022/10/11 06:09:33;;;;;;;35.80;17.30;;;;;;;14.74;100.00;95263.19;5131158;27;20603;-72
2022/10/11 06:12:02;;;;;;;34.57;18.37;;;;;;;14.69;100.00;95259.63;5130942;27;20199;-73
2022/10/11 06:14:29;;;;;;;31.73;18.73;;;;;;;14.71;100.00;95255.78;5130570;27;20755;-72
2022/10/11 06:16:55;;;;;;;33.80;19.13;;;;;;;14.64;100.00;95260.31;5126900;27;20219;-72
2022/10/11 06:19:22;;;;;;;31.80;18.80;;;;;;;14.64;100.00;95262.94;5128363;27;20200;-72
2022/10/11 06:21:49;;;;;;;35.57;19.47;;;;;;;14.69;100.00;95262.25;5129629;27;20211;-73
2022/10/11 06:24:16;;;;;;;33.00;19.20;;;;;;;14.74;100.00;95259.75;5130617;27;20732;-73
2022/10/11 06:26:43;;;;;;;40.87;19.83;;;;;;;14.66;100.00;95258.25;5131364;27;20703;-76
2022/10/11 06:29:11;;;;;;;32.47;17.77;;;;;;;14.64;100.00;95262.94;5130622;27;20215;-84
2022/10/11 06:31:38;;;;;;;31.03;18.37;;;;;;;14.71;100.00;95276.72;5131934;27;20214;-79
2022/10/11 06:34:04;;;;;;;38.83;20.37;;;;;;;14.77;100.00;95278.38;5130461;27;20203;-80
2022/10/11 06:36:31;;;;;;;36.37;20.40;;;;;;;14.88;100.00;95276.81;5126441;28;20337;-78
2022/10/11 06:39:00;;;;;;;34.70;20.93;;;;;;;14.84;100.00;95270.44;5130712;27;20214;-80
2022/10/11 06:41:29;;;;;;;36.13;20.60;;;;;;;14.94;100.00;95282.94;5131044;27;20199;-79
2022/10/11 06:43:56;;;;;;;43.97;21.17;;;;;;;14.58;100.00;95290.00;5122362;27;20224;-80
2022/10/11 06:46:26;;;;;;;35.33;21.07;;;;;;;14.21;100.00;95288.56;5131067;27;20192;-77
2022/10/11 06:48:55;;;;;;;37.80;22.10;;;;;;;13.99;100.00;95282.25;5133550;27;20227;-78
2022/10/11 06:51:23;;;;;;;42.83;22.27;;;;;;;14.03;100.00;95289.41;5134572;27;20207;-76
2022/10/11 06:53:50;;;;;;;34.83;20.57;;;;;;;14.09;100.00;95290.34;5134184;27;20199;-78
2022/10/11 06:56:18;;;;;;;43.97;21.83;;;;;;;14.26;100.00;95299.13;5130936;27;20710;-77
2022/10/11 06:58:45;;;;;;;41.20;21.40;;;;;;;14.37;100.00;95297.63;5131098;27;20199;-76
2022/10/11 07:01:15;;;;;;;37.97;21.03;;;;;;;14.55;100.00;95303.53;5134300;27;20646;-78
2022/10/11 07:03:44;;;;;;;36.00;20.97;;;;;;;14.70;100.00;95303.91;5134529;27;20286;-76
2022/10/11 07:06:13;;;;;;;40.03;21.40;;;;;;;14.85;100.00;95305.25;5132711;27;20741;-79
2022/10/11 07:08:40;;;;;;;37.13;21.10;;;;;;;14.97;100.00;95304.25;5134175;27;20222;-78
2022/10/11 07:11:09;;;;;;;41.00;20.93;;;;;;;15.09;100.00;95305.00;5130336;27;20203;-77
2022/10/11 07:13:37;;;;;;;35.87;20.60;;;;;;;15.12;100.00;95296.69;5129574;27;20195;-79
2022/10/11 07:16:05;;;;;;;35.67;19.90;;;;;;;15.22;100.00;95298.72;5135399;27;20227;-84
2022/10/11 07:18:32;;;;;;;35.40;20.33;;;;;;;15.22;100.00;95289.06;5135515;27;20195;-85
2022/10/11 07:21:03;;;;;;;39.03;20.00;;;;;;;15.14;100.00;95288.63;5118056;27;20576;-85
2022/10/11 07:23:30;;;;;;;36.97;20.50;;;;;;;15.22;100.00;95291.69;5122275;27;20317;-84
2022/10/11 07:25:56;;;;;;;34.63;18.97;;;;;;;15.23;100.00;95290.66;5130090;27;20203;-85
2022/10/11 07:28:24;;;;;;;36.57;20.50;;;;;;;15.23;100.00;95301.13;5118720;27;20199;-85
2022/10/11 07:30:51;;;;;;;34.67;19.80;;;;;;;15.27;100.00;95314.53;5130944;27;20207;-84
2022/10/11 07:33:18;;;;;;;35.40;19.83;;;;;;;15.34;100.00;95308.19;5125286;27;20200;-84
2022/10/11 07:35:44;;;;;;;36.33;20.53;;;;;;;15.38;100.00;95308.50;5130880;27;20697;-85
2022/10/11 07:38:13;;;;;;;39.37;20.53;;;;;;;15.51;100.00;95313.50;5135539;27;20202;-85
2022/10/11 07:40:42;;;;;;;36.47;19.73;;;;;;;15.47;100.00;95301.91;5135196;27;20198;-84
2022/10/11 07:43:09;;;;;;;39.20;18.90;;;;;;;15.47;100.00;95301.13;5124632;27;20200;-85
2022/10/11 07:45:37;;;;;;;40.13;20.47;;;;;;;15.61;100.00;95297.97;5117844;27;20658;-85
2022/10/11 07:48:04;;;;;;;35.57;19.47;;;;;;;15.59;100.00;95302.66;5134170;27;20230;-87
2022/10/11 07:50:31;;;;;;;38.20;19.87;;;;;;;15.59;100.00;95315.75;5120899;27;20203;-84
2022/10/11 07:52:58;;;;;;;42.03;19.13;;;;;;;15.62;100.00;95307.44;5121697;27;20555;-84
2022/10/11 07:55:29;;;;;;;36.07;19.13;;;;;;;15.55;100.00;95308.63;5135397;27;20211;-84
2022/10/11 07:57:55;;;;;;;36.97;18.87;;;;;;;15.46;100.00;95302.91;5131166;27;20196;-85
2022/10/11 08:00:22;;;;;;;32.73;18.87;;;;;;;15.61;100.00;95303.22;5124828;27;20204;-85
2022/10/11 08:02:49;;;;;;;34.53;18.00;;;;;;;15.59;100.00;95304.47;5135691;27;20195;-83
2022/10/11 08:05:16;;;;;;;32.87;18.13;;;;;;;15.47;100.00;95299.28;5135321;27;20256;-84
2022/10/11 08:07:43;;;;;;;35.73;19.57;;;;;;;15.55;100.00;95298.13;5135601;27;20199;-83
2022/10/11 08:10:11;;;;;;;34.60;18.27;;;;;;;15.65;100.00;95300.94;5132566;27;20195;-83
2022/10/11 08:12:39;;;;;;;38.57;18.17;;;;;;;15.64;100.00;95296.75;5130776;27;20203;-82
2022/10/11 08:15:07;;;;;;;31.83;18.50;;;;;;;15.65;100.00;95301.72;5135514;27;20192;-84
2022/10/11 08:17:34;;;;;;;29.47;17.50;;;;;;;15.74;99.88;95300.34;5135319;27;20558;-84
2022/10/11 08:20:00;;;;;;;33.60;19.20;;;;;;;15.76;99.45;95311.38;5135667;27;20196;-83
2022/10/11 08:22:27;;;;;;;36.90;19.40;;;;;;;15.85;99.32;95319.66;5135011;27;20199;-85
2022/10/11 08:24:54;;;;;;;37.40;19.23;;;;;;;15.92;99.07;95319.53;5127719;27;20200;-83
2022/10/11 08:27:21;;;;;;;42.97;20.03;;;;;;;15.87;99.81;95315.78;5122582;27;20208;-84
2022/10/11 08:29:49;;;;;;;33.50;18.47;;;;;;;15.91;99.25;95318.72;5127839;27;20230;-83
2022/10/11 08:32:16;;;;;;;33.90;18.43;;;;;;;15.90;99.24;95317.16;5129562;27;20203;-82
2022/10/11 08:34:43;;;;;;;29.50;16.70;;;;;;;15.97;99.67;95311.75;5133640;27;20202;-83
2022/10/11 08:37:10;;;;;;;31.57;17.23;;;;;;;16.04;98.75;95312.41;5125122;27;20283;-81
2022/10/11 08:39:37;;;;;;;31.97;17.40;;;;;;;16.03;98.53;95310.81;5129560;27;20206;-83
2022/10/11 08:42:06;;;;;;;30.00;18.03;;;;;;;16.09;98.02;95318.56;5132444;27;20195;-84
2022/10/11 08:44:42;;;;;;;30.83;18.10;;;;;;;16.13;97.83;95311.78;5122655;27;20211;-84
2022/10/11 08:47:16;;;;;;;31.70;18.47;;;;;;;16.18;98.29;95311.09;5134191;27;20199;-84
2022/10/11 08:49:43;;;;;;;32.90;17.87;;;;;;;16.29;97.47;95318.09;5123933;27;20207;-85
2022/10/11 08:52:15;;;;;;;31.37;18.13;;;;;;;16.28;97.28;95311.25;5125567;27;20196;-83
2022/10/11 08:54:48;;;;;;;32.13;17.13;;;;;;;16.23;97.80;95313.78;5126467;27;20192;-85
2022/10/11 08:57:18;;;;;;;36.73;17.97;;;;;;;16.29;96.94;95321.53;5125402;27;20213;-86
2022/10/11 08:59:49;;;;;;;32.63;18.07;;;;;;;16.37;96.47;95317.72;5133217;27;20205;-85
2022/10/11 09:02:26;;;;;;;31.63;17.93;;;;;;;16.42;96.06;95315.97;5126747;27;20203;-85
2022/10/11 09:04:54;;;;;;;33.53;18.43;;;;;;;16.41;96.02;95310.97;5120358;27;20202;-85
2022/10/11 09:07:35;;;;;;;30.60;17.40;;;;;;;16.41;96.02;95311.78;5119401;27;20207;-85
2022/10/11 09:10:20;;;;;;;30.57;17.07;;;;;;;16.46;95.75;95300.53;5128889;27;20219;-85
2022/10/11 09:12:55;;;;;;;32.97;17.63;;;;;;;16.44;95.73;95308.66;5133387;27;20214;-85
2022/10/11 09:15:31;;;;;;;34.43;17.77;;;;;;;16.57;95.34;95304.16;5133482;27;20199;-86
2022/10/11 09:18:21;;;;;;;26.77;17.50;;;;;;;16.63;94.37;95311.06;5133840;27;20246;-86
2022/10/11 09:20:56;;;;;;;36.70;17.97;;;;;;;16.57;95.18;95306.78;5133640;27;20194;-86
2022/10/11 09:23:42;;;;;;;33.37;17.23;;;;;;;16.57;95.09;95307.56;5133517;27;20251;-85
2022/10/11 09:26:14;;;;;;;38.97;17.93;;;;;;;16.68;95.11;95304.06;5133348;27;20206;-86
2022/10/11 09:28:53;;;;;;;29.23;17.23;;;;;;;16.82;94.38;95307.97;5120933;27;20211;-85
2022/10/11 09:31:22;;;;;;;31.03;16.57;;;;;;;16.97;93.79;95302.13;5116921;27;20266;-87
2022/10/11 09:33:51;;;;;;;29.67;16.60;;;;;;;17.11;92.71;95298.16;5128242;27;20210;-85
2022/10/11 09:36:25;;;;;;;27.37;17.00;;;;;;;17.26;91.64;95294.91;5134390;27;20231;-85
2022/10/11 09:38:59;;;;;;;31.87;16.80;;;;;;;17.30;90.52;95299.44;5119432;27;20639;-84
2022/10/11 09:41:33;;;;;;;24.33;15.90;;;;;;;17.33;90.28;95298.16;5125811;27;20685;-85
2022/10/11 09:44:00;;;;;;;27.17;16.90;;;;;;;17.34;90.86;95294.50;5125835;27;20614;-85
2022/10/11 09:46:34;;;;;;;26.80;16.67;;;;;;;17.48;90.94;95291.28;5122128;27;20208;-86
2022/10/11 09:49:07;;;;;;;23.17;15.40;;;;;;;17.58;88.18;95296.66;5119276;27;20238;-86
2022/10/11 09:51:34;;;;;;;24.33;15.70;;;;;;;17.68;88.18;95293.38;5124708;27;20284;-85
2022/10/11 09:54:04;;;;;;;26.23;16.03;;;;;;;17.79;87.06;95286.38;5132037;27;20202;-85
2022/10/11 09:56:34;;;;;;;26.23;15.87;;;;;;;17.94;87.37;95289.16;5131944;27;20313;-85
2022/10/11 09:59:10;;;;;;;25.10;17.33;;;;;;;18.10;87.29;95294.31;5132381;27;20199;-86
2022/10/11 10:01:37;;;;;;;26.13;16.37;;;;;;;18.30;86.63;95285.81;5119315;28;20199;-85
2022/10/11 10:04:08;;;;;;;28.67;16.17;;;;;;;18.49;85.78;95292.34;5132586;27;20202;-85
2022/10/11 10:06:35;;;;;;;27.13;15.38;;;;;;;18.62;85.16;95291.13;5112463;28;20196;-85
2022/10/11 10:09:25;;;;;;;25.73;16.70;;;;;;;18.74;84.17;95286.47;5126042;28;20204;-86
2022/10/11 10:11:52;;;;;;;25.33;16.33;;;;;;;18.86;83.37;95284.44;5115832;28;20692;-86
2022/10/11 10:14:22;;;;;;;26.75;16.02;;;;;;;18.99;83.08;95286.63;5132962;27;20625;-86
2022/10/11 10:16:59;;;;;;;25.10;16.10;;;;;;;18.98;82.32;95282.44;5126008;27;20215;-85
2022/10/11 10:19:28;;;;;;;29.30;16.80;;;;;;;19.00;81.64;95288.22;5127412;27;20320;-86
2022/10/11 10:21:56;;;;;;;27.65;16.23;;;;;;;19.02;82.19;95286.13;5129315;27;20196;-86
2022/10/11 10:24:37;;;;;;;24.77;16.02;;;;;;;19.17;81.97;95278.31;5135267;27;20206;-88
2022/10/11 10:27:21;;;;;;;31.90;16.35;;;;;;;19.22;81.79;95273.06;5136436;27;20247;-87
2022/10/11 10:30:04;;;;;;;27.92;16.83;;;;;;;19.20;81.82;95277.00;5122537;27;20578;-88
2022/10/11 10:32:39;;;;;;;26.75;15.80;;;;;;;19.27;81.58;95267.03;5132119;27;20199;-88
2022/10/11 10:35:16;;;;;;;29.75;16.95;;;;;;;19.31;81.27;95275.22;5124959;27;20199;-88
2022/10/11 10:37:48;;;;;;;35.08;17.67;;;;;;;19.15;81.30;95274.34;5136526;27;20230;-89
2022/10/11 10:40:21;;;;;;;25.50;16.20;;;;;;;19.25;81.35;95267.28;5129200;27;20574;-89
2022/10/11 10:42:49;;;;;;;27.48;16.60;;;;;;;19.13;80.63;95264.03;5117876;27;20185;-88
2022/10/11 10:45:17;;;;;;;26.13;16.73;;;;;;;19.21;80.98;95257.50;5136450;27;20199;-88
2022/10/11 10:48:03;;;;;;;29.20;16.15;;;;;;;19.32;80.96;95259.16;5136218;27;20231;-88
2022/10/11 10:50:47;;;;;;;27.60;15.52;;;;;;;19.52;80.96;95258.47;5136292;27;20179;-89
2022/10/11 10:53:24;;;;;;;23.30;14.65;;;;;;;19.81;79.04;95247.22;5123246;27;20192;-89
2022/10/11 10:56:00;;;;;;;24.85;15.85;;;;;;;20.08;77.41;95247.00;5123242;27;20206;-89
2022/10/11 10:58:41;;;;;;;25.83;15.68;;;;;;;20.31;75.92;95245.72;5127431;27;20254;-89
2022/10/11 11:01:15;;;;;;;23.23;15.30;;;;;;;20.74;75.44;95245.19;5119445;27;20199;-88
2022/10/11 11:03:47;;;;;;;23.50;15.52;;;;;;;20.88;73.67;95246.22;5136597;27;20586;-88
2022/10/11 11:06:26;;;;;;;27.17;15.27;;;;;;;20.98;73.90;95248.03;5130751;27;20206;-90
2022/10/11 11:09:11;;;;;;;24.50;16.00;;;;;;;20.97;72.91;95235.09;5115657;28;20192;-89
2022/10/11 11:11:53;;;;;;;33.92;16.70;;;;;;;20.92;72.88;95241.19;5115951;28;20231;-87
2022/10/11 11:14:33;;;;;;;25.15;15.40;;;;;;;20.94;72.73;95236.41;5133420;27;20210;-89
2022/10/11 11:17:11;;;;;;;24.02;15.90;;;;;;;20.87;72.84;95231.41;5135527;27;20742;-89
2022/10/11 11:19:53;;;;;;;23.13;15.30;;;;;;;20.68;73.68;95235.69;5115466;28;20681;-89
2022/10/11 11:22:31;;;;;;;25.83;15.52;;;;;;;20.23;74.88;95227.75;5135532;27;20881;-88
2022/10/11 11:25:04;;;;;;;23.52;14.52;;;;;;;20.05;75.00;95230.91;5133442;27;20196;-89